sensor_id;sensor_type;location;lat;lon;timestamp;pressure;altitude;pressure_sealevel;temperature;humidity
6395;BME280;3230;42.588;23.358;2023-07-13T00:00:46;91482.91;;;22.33;58.60
6395;BME280;3230;42.588;23.358;2023-07-13T00:03:11;91476.47;;;22.34;59.08
6395;BME280;3230;42.588;23.358;2023-07-13T00:05:38;91471.25;;;22.26;60.06
6395;BME280;3230;42.588;23.358;2023-07-13T00:08:04;91480.47;;;22.16;61.36
6395;BME280;3230;42.588;23.358;2023-07-13T00:10:29;91478.59;;;22.04;62.33
6395;BME280;3230;42.588;23.358;2023-07-13T00:12:55;91474.59;;;21.98;62.68
6395;BME280;3230;42.588;23.358;2023-07-13T00:15:24;91479.91;;;21.85;63.71
6395;BME280;3230;42.588;23.358;2023-07-13T00:17:51;91466.22;;;21.99;62.91
6395;BME280;3230;42.588;23.358;2023-07-13T00:20:16;91463.38;;;22.04;60.79
6395;BME280;3230;42.588;23.358;2023-07-13T00:22:42;91463.44;;;21.96;59.94
6395;BME280;3230;42.588;23.358;2023-07-13T00:25:10;91462.47;;;22.13;60.70
6395;BME280;3230;42.588;23.358;2023-07-13T00:27:36;91450.78;;;22.17;59.26
6395;BME280;3230;42.588;23.358;2023-07-13T00:30:02;91453.13;;;22.19;62.31
6395;BME280;3230;42.588;23.358;2023-07-13T00:32:27;91457.78;;;22.22;63.24
6395;BME280;3230;42.588;23.358;2023-07-13T00:34:54;91457.81;;;21.97;65.24
6395;BME280;3230;42.588;23.358;2023-07-13T00:37:19;91454.78;;;21.86;66.02
6395;BME280;3230;42.588;23.358;2023-07-13T00:39:44;91448.66;;;21.73;66.79
6395;BME280;3230;42.588;23.358;2023-07-13T00:42:10;91449.44;;;21.74;67.88
6395;BME280;3230;42.588;23.358;2023-07-13T00:44:36;91447.34;;;21.80;68.15
6395;BME280;3230;42.588;23.358;2023-07-13T00:47:01;91447.09;;;21.72;68.92
6395;BME280;3230;42.588;23.358;2023-07-13T00:49:29;91446.66;;;21.70;70.35
6395;BME280;3230;42.588;23.358;2023-07-13T00:52:04;91452.31;;;21.69;70.93
6395;BME280;3230;42.588;23.358;2023-07-13T00:54:34;91449.53;;;21.65;71.72
6395;BME280;3230;42.588;23.358;2023-07-13T00:57:04;91452.03;;;21.49;72.41
6395;BME280;3230;42.588;23.358;2023-07-13T00:59:31;91445.78;;;21.33;75.08
6395;BME280;3230;42.588;23.358;2023-07-13T01:01:58;91445.13;;;21.36;74.94
6395;BME280;3230;42.588;23.358;2023-07-13T01:04:25;91438.34;;;21.38;75.23
6395;BME280;3230;42.588;23.358;2023-07-13T01:06:50;91436.81;;;21.37;75.87
6395;BME280;3230;42.588;23.358;2023-07-13T01:09:16;91432.38;;;21.41;75.68
6395;BME280;3230;42.588;23.358;2023-07-13T01:11:43;91433.44;;;21.28;76.65
6395;BME280;3230;42.588;23.358;2023-07-13T01:14:10;91434.22;;;21.29;76.81
6395;BME280;3230;42.588;23.358;2023-07-13T01:16:37;91431.66;;;21.20;77.14
6395;BME280;3230;42.588;23.358;2023-07-13T01:19:12;91438.28;;;21.14;78.19
6395;BME280;3230;42.588;23.358;2023-07-13T01:21:40;91432.72;;;21.06;79.07
6395;BME280;3230;42.588;23.358;2023-07-13T01:24:08;91430.91;;;20.98;78.91
6395;BME280;3230;42.588;23.358;2023-07-13T01:26:34;91437.66;;;20.96;79.53
6395;BME280;3230;42.588;23.358;2023-07-13T01:28:59;91431.91;;;20.93;79.52
6395;BME280;3230;42.588;23.358;2023-07-13T01:31:25;91431.72;;;20.77;80.30
6395;BME280;3230;42.588;23.358;2023-07-13T01:33:51;91432.09;;;20.67;79.59
6395;BME280;3230;42.588;23.358;2023-07-13T01:36:17;91426.44;;;20.69;78.79
6395;BME280;3230;42.588;23.358;2023-07-13T01:38:42;91427.88;;;20.66;78.56
6395;BME280;3230;42.588;23.358;2023-07-13T01:41:07;91429.25;;;20.72;78.08
6395;BME280;3230;42.588;23.358;2023-07-13T01:43:33;91426.91;;;20.71;78.64
6395;BME280;3230;42.588;23.358;2023-07-13T01:45:58;91422.34;;;20.71;78.01
6395;BME280;3230;42.588;23.358;2023-07-13T01:48:24;91428.59;;;20.75;79.88
6395;BME280;3230;42.588;23.358;2023-07-13T01:50:49;91430.81;;;20.73;77.36
6395;BME280;3230;42.588;23.358;2023-07-13T01:53:15;91425.66;;;20.68;74.03
6395;BME280;3230;42.588;23.358;2023-07-13T01:55:41;91428.97;;;20.65;77.45
6395;BME280;3230;42.588;23.358;2023-07-13T01:58:06;91424.31;;;20.62;77.04
6395;BME280;3230;42.588;23.358;2023-07-13T02:00:32;91426.31;;;20.44;78.19
6395;BME280;3230;42.588;23.358;2023-07-13T02:02:58;91430.72;;;20.61;73.22
6395;BME280;3230;42.588;23.358;2023-07-13T02:05:23;91426.50;;;20.60;76.58
6395;BME280;3230;42.588;23.358;2023-07-13T02:07:49;91429.88;;;20.69;77.01
6395;BME280;3230;42.588;23.358;2023-07-13T02:10:14;91427.88;;;20.66;78.31
6395;BME280;3230;42.588;23.358;2023-07-13T02:12:41;91425.41;;;20.61;76.71
6395;BME280;3230;42.588;23.358;2023-07-13T02:15:06;91423.59;;;20.53;78.78
6395;BME280;3230;42.588;23.358;2023-07-13T02:17:34;91421.06;;;20.56;78.36
6395;BME280;3230;42.588;23.358;2023-07-13T02:20:00;91422.63;;;20.57;79.17
6395;BME280;3230;42.588;23.358;2023-07-13T02:22:25;91424.03;;;20.55;76.37
6395;BME280;3230;42.588;23.358;2023-07-13T02:24:51;91425.22;;;20.45;78.21
6395;BME280;3230;42.588;23.358;2023-07-13T02:27:16;91429.28;;;20.64;77.84
6395;BME280;3230;42.588;23.358;2023-07-13T02:29:42;91427.47;;;20.55;80.16
6395;BME280;3230;42.588;23.358;2023-07-13T02:32:07;91429.38;;;20.55;80.51
6395;BME280;3230;42.588;23.358;2023-07-13T02:34:33;91437.16;;;20.60;79.38
6395;BME280;3230;42.588;23.358;2023-07-13T02:36:59;91429.81;;;20.57;79.79
6395;BME280;3230;42.588;23.358;2023-07-13T02:39:24;91427.41;;;20.43;80.42
6395;BME280;3230;42.588;23.358;2023-07-13T02:41:49;91437.28;;;20.42;80.64
6395;BME280;3230;42.588;23.358;2023-07-13T02:44:15;91434.94;;;20.41;79.70
6395;BME280;3230;42.588;23.358;2023-07-13T02:46:41;91434.81;;;20.37;79.79
6395;BME280;3230;42.588;23.358;2023-07-13T02:49:06;91430.97;;;20.26;80.63
6395;BME280;3230;42.588;23.358;2023-07-13T02:51:32;91428.44;;;20.29;78.80
6395;BME280;3230;42.588;23.358;2023-07-13T02:54:00;91436.09;;;20.31;79.10
6395;BME280;3230;42.588;23.358;2023-07-13T02:56:27;91436.81;;;20.40;81.45
6395;BME280;3230;42.588;23.358;2023-07-13T02:58:53;91426.81;;;20.37;81.16
6395;BME280;3230;42.588;23.358;2023-07-13T03:01:21;91428.56;;;20.33;79.18
6395;BME280;3230;42.588;23.358;2023-07-13T03:03:47;91430.78;;;20.31;81.74
6395;BME280;3230;42.588;23.358;2023-07-13T03:06:13;91429.47;;;20.37;78.87
6395;BME280;3230;42.588;23.358;2023-07-13T03:08:39;91425.59;;;20.35;81.31
6395;BME280;3230;42.588;23.358;2023-07-13T03:11:14;91422.25;;;20.17;82.43
6395;BME280;3230;42.588;23.358;2023-07-13T03:13:41;91436.09;;;20.31;77.14
6395;BME280;3230;42.588;23.358;2023-07-13T03:16:07;91430.22;;;20.47;72.74
6395;BME280;3230;42.588;23.358;2023-07-13T03:18:32;91427.00;;;20.53;77.64
6395;BME280;3230;42.588;23.358;2023-07-13T03:20:58;91428.53;;;20.63;77.70
6395;BME280;3230;42.588;23.358;2023-07-13T03:23:24;91433.97;;;20.67;75.96
6395;BME280;3230;42.588;23.358;2023-07-13T03:25:50;91437.53;;;20.71;76.99
6395;BME280;3230;42.588;23.358;2023-07-13T03:28:16;91448.28;;;20.83;79.85
6395;BME280;3230;42.588;23.358;2023-07-13T03:30:42;91437.97;;;20.82;77.61
6395;BME280;3230;42.588;23.358;2023-07-13T03:33:07;91439.66;;;20.86;75.75
6395;BME280;3230;42.588;23.358;2023-07-13T03:35:34;91432.34;;;20.96;76.02
6395;BME280;3230;42.588;23.358;2023-07-13T03:37:59;91434.78;;;21.01;79.13
6395;BME280;3230;42.588;23.358;2023-07-13T03:40:26;91429.84;;;21.12;79.91
6395;BME280;3230;42.588;23.358;2023-07-13T03:42:52;91438.53;;;21.21;78.20
6395;BME280;3230;42.588;23.358;2023-07-13T03:45:17;91435.16;;;21.12;80.08
6395;BME280;3230;42.588;23.358;2023-07-13T03:47:43;91446.41;;;21.17;81.65
6395;BME280;3230;42.588;23.358;2023-07-13T03:50:12;91431.16;;;21.39;74.75
6395;BME280;3230;42.588;23.358;2023-07-13T03:52:37;91433.38;;;21.49;75.69
6395;BME280;3230;42.588;23.358;2023-07-13T03:55:03;91429.34;;;21.77;75.24
6395;BME280;3230;42.588;23.358;2023-07-13T03:57:29;91443.56;;;21.93;79.41
6395;BME280;3230;42.588;23.358;2023-07-13T03:59:54;91429.34;;;22.01;79.14
6395;BME280;3230;42.588;23.358;2023-07-13T04:02:20;91441.56;;;22.02;79.13
6395;BME280;3230;42.588;23.358;2023-07-13T04:04:46;91439.00;;;22.18;76.93
6395;BME280;3230;42.588;23.358;2023-07-13T04:07:11;91440.91;;;22.43;75.19
6395;BME280;3230;42.588;23.358;2023-07-13T04:09:37;91438.66;;;22.57;76.16
6395;BME280;3230;42.588;23.358;2023-07-13T04:12:03;91436.94;;;22.65;79.18
6395;BME280;3230;42.588;23.358;2023-07-13T04:14:29;91456.16;;;23.24;76.06
6395;BME280;3230;42.588;23.358;2023-07-13T04:16:54;91445.09;;;23.70;71.46
6395;BME280;3230;42.588;23.358;2023-07-13T04:19:20;91442.75;;;23.68;76.89
6395;BME280;3230;42.588;23.358;2023-07-13T04:21:45;91446.75;;;24.06;74.02
6395;BME280;3230;42.588;23.358;2023-07-13T04:24:11;91440.13;;;24.00;74.42
6395;BME280;3230;42.588;23.358;2023-07-13T04:26:37;91446.06;;;24.09;73.49
6395;BME280;3230;42.588;23.358;2023-07-13T04:29:03;91450.66;;;24.09;74.17
6395;BME280;3230;42.588;23.358;2023-07-13T04:31:29;91444.91;;;24.42;74.10
6395;BME280;3230;42.588;23.358;2023-07-13T04:33:55;91453.25;;;24.57;73.01
6395;BME280;3230;42.588;23.358;2023-07-13T04:36:21;91453.22;;;24.73;73.75
6395;BME280;3230;42.588;23.358;2023-07-13T04:38:46;91454.88;;;24.97;73.56
6395;BME280;3230;42.588;23.358;2023-07-13T04:41:13;91458.91;;;25.27;70.13
6395;BME280;3230;42.588;23.358;2023-07-13T04:43:39;91457.47;;;25.33;70.97
6395;BME280;3230;42.588;23.358;2023-07-13T04:46:11;91466.09;;;25.62;59.79
6395;BME280;3230;42.588;23.358;2023-07-13T04:48:37;91467.22;;;26.30;56.51
6395;BME280;3230;42.588;23.358;2023-07-13T04:51:03;91460.81;;;28.95;47.74
6395;BME280;3230;42.588;23.358;2023-07-13T04:53:30;91473.19;;;30.31;45.20
6395;BME280;3230;42.588;23.358;2023-07-13T04:55:56;91475.97;;;32.91;39.43
6395;BME280;3230;42.588;23.358;2023-07-13T04:58:24;91486.81;;;33.98;38.16
6395;BME280;3230;42.588;23.358;2023-07-13T05:00:50;91496.00;;;35.54;34.58
6395;BME280;3230;42.588;23.358;2023-07-13T05:03:16;91495.25;;;36.47;32.17
6395;BME280;3230;42.588;23.358;2023-07-13T05:05:41;91496.97;;;38.08;30.27
6395;BME280;3230;42.588;23.358;2023-07-13T05:08:07;91497.00;;;38.21;29.00
6395;BME280;3230;42.588;23.358;2023-07-13T05:10:32;91505.50;;;37.09;30.55
6395;BME280;3230;42.588;23.358;2023-07-13T05:12:58;91501.59;;;38.11;29.82
6395;BME280;3230;42.588;23.358;2023-07-13T05:15:23;91501.97;;;38.39;29.37
6395;BME280;3230;42.588;23.358;2023-07-13T05:17:50;91515.25;;;38.24;29.06
6395;BME280;3230;42.588;23.358;2023-07-13T05:20:17;91514.50;;;39.01;29.14
6395;BME280;3230;42.588;23.358;2023-07-13T05:22:43;91512.56;;;38.37;29.94
6395;BME280;3230;42.588;23.358;2023-07-13T05:25:09;91512.31;;;38.18;29.53
6395;BME280;3230;42.588;23.358;2023-07-13T05:27:35;91510.31;;;37.64;28.62
6395;BME280;3230;42.588;23.358;2023-07-13T05:30:02;91507.44;;;36.42;31.95
6395;BME280;3230;42.588;23.358;2023-07-13T05:32:28;91510.84;;;36.46;32.71
6395;BME280;3230;42.588;23.358;2023-07-13T05:34:54;91512.34;;;35.94;32.40
6395;BME280;3230;42.588;23.358;2023-07-13T05:37:19;91516.38;;;37.42;29.92
6395;BME280;3230;42.588;23.358;2023-07-13T05:39:45;91518.72;;;37.99;28.79
6395;BME280;3230;42.588;23.358;2023-07-13T05:42:10;91518.25;;;36.09;31.01
6395;BME280;3230;42.588;23.358;2023-07-13T05:44:36;91528.06;;;37.42;29.41
6395;BME280;3230;42.588;23.358;2023-07-13T05:47:01;91528.50;;;39.51;26.46
6395;BME280;3230;42.588;23.358;2023-07-13T05:49:27;91535.44;;;38.69;26.14
6395;BME280;3230;42.588;23.358;2023-07-13T05:51:52;91521.75;;;37.29;26.58
6395;BME280;3230;42.588;23.358;2023-07-13T05:54:18;91525.56;;;38.20;27.51
6395;BME280;3230;42.588;23.358;2023-07-13T05:56:43;91528.44;;;38.55;25.12
6395;BME280;3230;42.588;23.358;2023-07-13T05:59:09;91528.94;;;38.11;27.69
6395;BME280;3230;42.588;23.358;2023-07-13T06:01:34;91520.00;;;38.49;26.56
6395;BME280;3230;42.588;23.358;2023-07-13T06:03:59;91525.56;;;38.97;25.50
6395;BME280;3230;42.588;23.358;2023-07-13T06:06:25;91519.84;;;38.01;27.33
6395;BME280;3230;42.588;23.358;2023-07-13T06:08:50;91523.41;;;37.85;28.12
6395;BME280;3230;42.588;23.358;2023-07-13T06:11:18;91519.59;;;38.38;28.65
6395;BME280;3230;42.588;23.358;2023-07-13T06:13:44;91516.69;;;39.76;25.97
6395;BME280;3230;42.588;23.358;2023-07-13T06:16:10;91516.28;;;38.69;27.02
6395;BME280;3230;42.588;23.358;2023-07-13T06:18:36;91523.81;;;39.74;26.45
6395;BME280;3230;42.588;23.358;2023-07-13T06:21:16;91507.63;;;39.89;26.45
6395;BME280;3230;42.588;23.358;2023-07-13T06:23:43;91518.66;;;39.54;26.21
6395;BME280;3230;42.588;23.358;2023-07-13T06:26:10;91524.88;;;39.67;25.59
6395;BME280;3230;42.588;23.358;2023-07-13T06:28:37;91521.88;;;40.06;25.07
6395;BME280;3230;42.588;23.358;2023-07-13T06:31:06;91528.34;;;40.66;25.86
6395;BME280;3230;42.588;23.358;2023-07-13T06:33:31;91526.25;;;41.94;23.77
6395;BME280;3230;42.588;23.358;2023-07-13T06:35:57;91530.19;;;42.12;24.00
6395;BME280;3230;42.588;23.358;2023-07-13T06:38:22;91523.88;;;42.39;22.81
6395;BME280;3230;42.588;23.358;2023-07-13T06:40:48;91526.97;;;43.33;22.27
6395;BME280;3230;42.588;23.358;2023-07-13T06:43:13;91521.34;;;41.80;23.69
6395;BME280;3230;42.588;23.358;2023-07-13T06:45:44;91522.56;;;41.42;23.79
6395;BME280;3230;42.588;23.358;2023-07-13T06:48:18;91526.59;;;42.91;22.69
6395;BME280;3230;42.588;23.358;2023-07-13T06:50:45;91535.25;;;42.65;23.36
6395;BME280;3230;42.588;23.358;2023-07-13T06:53:11;91532.91;;;42.21;22.40
6395;BME280;3230;42.588;23.358;2023-07-13T06:55:37;91529.31;;;41.96;23.57
6395;BME280;3230;42.588;23.358;2023-07-13T06:58:03;91521.44;;;42.32;24.00
6395;BME280;3230;42.588;23.358;2023-07-13T07:00:28;91525.28;;;43.02;23.16
6395;BME280;3230;42.588;23.358;2023-07-13T07:02:54;91524.06;;;43.75;23.42
6395;BME280;3230;42.588;23.358;2023-07-13T07:05:19;91517.22;;;43.22;24.29
6395;BME280;3230;42.588;23.358;2023-07-13T07:07:50;91532.69;;;44.07;22.77
6395;BME280;3230;42.588;23.358;2023-07-13T07:10:17;91531.00;;;43.46;22.45
6395;BME280;3230;42.588;23.358;2023-07-13T07:12:42;91528.88;;;43.26;22.50
6395;BME280;3230;42.588;23.358;2023-07-13T07:15:08;91524.91;;;43.67;23.13
6395;BME280;3230;42.588;23.358;2023-07-13T07:17:33;91530.59;;;42.38;25.28
6395;BME280;3230;42.588;23.358;2023-07-13T07:19:59;91525.97;;;42.87;23.68
6395;BME280;3230;42.588;23.358;2023-07-13T07:22:24;91527.72;;;42.23;25.33
6395;BME280;3230;42.588;23.358;2023-07-13T07:24:53;91528.34;;;42.09;26.27
6395;BME280;3230;42.588;23.358;2023-07-13T07:27:18;91529.25;;;42.15;24.71
6395;BME280;3230;42.588;23.358;2023-07-13T07:29:44;91528.75;;;42.44;24.25
6395;BME280;3230;42.588;23.358;2023-07-13T07:32:09;91536.78;;;44.12;22.98
6395;BME280;3230;42.588;23.358;2023-07-13T07:34:35;91535.50;;;43.10;23.68
6395;BME280;3230;42.588;23.358;2023-07-13T07:37:01;91534.19;;;43.93;22.61
6395;BME280;3230;42.588;23.358;2023-07-13T07:39:27;91525.41;;;43.80;23.23
6395;BME280;3230;42.588;23.358;2023-07-13T07:41:53;91526.69;;;43.55;23.52
6395;BME280;3230;42.588;23.358;2023-07-13T07:44:18;91529.44;;;43.30;22.60
6395;BME280;3230;42.588;23.358;2023-07-13T07:46:44;91521.75;;;42.77;23.76
6395;BME280;3230;42.588;23.358;2023-07-13T07:49:09;91519.34;;;43.27;23.43
6395;BME280;3230;42.588;23.358;2023-07-13T07:51:35;91520.03;;;43.61;22.64
6395;BME280;3230;42.588;23.358;2023-07-13T07:54:01;91524.44;;;43.20;22.39
6395;BME280;3230;42.588;23.358;2023-07-13T07:56:27;91512.31;;;42.07;24.61
6395;BME280;3230;42.588;23.358;2023-07-13T07:58:52;91518.59;;;42.93;22.96
6395;BME280;3230;42.588;23.358;2023-07-13T08:01:17;91510.00;;;42.15;23.35
6395;BME280;3230;42.588;23.358;2023-07-13T08:03:43;91520.03;;;43.61;22.05
6395;BME280;3230;42.588;23.358;2023-07-13T08:06:08;91527.63;;;44.66;20.48
6395;BME280;3230;42.588;23.358;2023-07-13T08:08:34;91515.91;;;44.86;20.90
6395;BME280;3230;42.588;23.358;2023-07-13T08:11:03;91509.72;;;43.23;22.73
6395;BME280;3230;42.588;23.358;2023-07-13T08:13:28;91508.19;;;43.46;22.80
6395;BME280;3230;42.588;23.358;2023-07-13T08:15:53;91499.22;;;43.60;22.55
6395;BME280;3230;42.588;23.358;2023-07-13T08:18:19;91496.59;;;43.81;22.09
6395;BME280;3230;42.588;23.358;2023-07-13T08:20:44;91487.81;;;42.95;23.67
6395;BME280;3230;42.588;23.358;2023-07-13T08:23:10;91493.31;;;43.68;21.54
6395;BME280;3230;42.588;23.358;2023-07-13T08:25:35;91494.94;;;44.79;20.93
6395;BME280;3230;42.588;23.358;2023-07-13T08:28:02;91493.63;;;45.31;20.55
6395;BME280;3230;42.588;23.358;2023-07-13T08:30:28;91498.06;;;45.08;21.33
6395;BME280;3230;42.588;23.358;2023-07-13T08:32:53;91482.44;;;42.67;24.24
6395;BME280;3230;42.588;23.358;2023-07-13T08:35:19;91480.97;;;43.39;23.53
6395;BME280;3230;42.588;23.358;2023-07-13T08:37:44;91483.41;;;44.81;20.74
6395;BME280;3230;42.588;23.358;2023-07-13T08:40:11;91485.75;;;44.22;22.49
6395;BME280;3230;42.588;23.358;2023-07-13T08:43:00;91498.19;;;45.55;21.13
6395;BME280;3230;42.588;23.358;2023-07-13T08:45:30;91494.75;;;44.83;22.36
6395;BME280;3230;42.588;23.358;2023-07-13T08:48:05;91490.84;;;45.31;21.82
6395;BME280;3230;42.588;23.358;2023-07-13T08:50:41;91480.47;;;45.67;23.75
6395;BME280;3230;42.588;23.358;2023-07-13T08:53:12;91479.50;;;45.08;24.20
6395;BME280;3230;42.588;23.358;2023-07-13T08:55:39;91483.59;;;45.13;24.35
6395;BME280;3230;42.588;23.358;2023-07-13T08:58:13;91483.06;;;44.43;23.90
6395;BME280;3230;42.588;23.358;2023-07-13T09:00:50;91482.78;;;44.92;24.43
6395;BME280;3230;42.588;23.358;2023-07-13T09:03:27;91481.34;;;44.31;24.27
6395;BME280;3230;42.588;23.358;2023-07-13T09:05:58;91481.22;;;42.68;27.03
6395;BME280;3230;42.588;23.358;2023-07-13T09:09:01;91486.69;;;43.02;25.37
6395;BME280;3230;42.588;23.358;2023-07-13T09:11:45;91496.81;;;42.38;26.41
6395;BME280;3230;42.588;23.358;2023-07-13T09:16:55;91503.81;;;39.29;29.84
6395;BME280;3230;42.588;23.358;2023-07-13T09:19:27;91509.16;;;38.46;33.01
6395;BME280;3230;42.588;23.358;2023-07-13T09:21:55;91502.22;;;37.89;32.67
6395;BME280;3230;42.588;23.358;2023-07-13T09:24:37;91501.03;;;37.15;33.61
6395;BME280;3230;42.588;23.358;2023-07-13T09:27:11;91513.16;;;36.97;32.95
6395;BME280;3230;42.588;23.358;2023-07-13T09:29:41;91514.16;;;35.81;35.34
6395;BME280;3230;42.588;23.358;2023-07-13T09:32:10;91510.31;;;35.58;34.60
6395;BME280;3230;42.588;23.358;2023-07-13T09:34:39;91510.75;;;35.33;33.96
6395;BME280;3230;42.588;23.358;2023-07-13T09:37:05;91509.56;;;34.66;34.64
6395;BME280;3230;42.588;23.358;2023-07-13T09:39:37;91513.78;;;34.43;35.28
6395;BME280;3230;42.588;23.358;2023-07-13T09:42:14;91494.16;;;34.01;35.69
6395;BME280;3230;42.588;23.358;2023-07-13T09:47:28;91502.72;;;34.27;36.92
6395;BME280;3230;42.588;23.358;2023-07-13T09:50:08;91498.91;;;34.21;35.01
6395;BME280;3230;42.588;23.358;2023-07-13T09:52:41;91498.97;;;34.17;37.78
6395;BME280;3230;42.588;23.358;2023-07-13T09:55:24;91498.91;;;34.21;36.54
6395;BME280;3230;42.588;23.358;2023-07-13T09:57:50;91497.09;;;34.14;36.90
6395;BME280;3230;42.588;23.358;2023-07-13T10:00:27;91494.72;;;33.89;35.67
6395;BME280;3230;42.588;23.358;2023-07-13T10:03:20;91485.16;;;33.42;37.13
6395;BME280;3230;42.588;23.358;2023-07-13T10:05:49;91482.72;;;33.52;37.92
6395;BME280;3230;42.588;23.358;2023-07-13T10:08:22;91478.88;;;33.49;37.00
6395;BME280;3230;42.588;23.358;2023-07-13T10:10:59;91478.31;;;33.61;36.64
6395;BME280;3230;42.588;23.358;2023-07-13T10:13:34;91469.53;;;33.85;36.25
6395;BME280;3230;42.588;23.358;2023-07-13T10:16:02;91463.38;;;33.77;36.78
6395;BME280;3230;42.588;23.358;2023-07-13T10:18:40;91468.00;;;33.49;35.96
6395;BME280;3230;42.588;23.358;2023-07-13T10:23:40;91468.50;;;33.02;38.55
6395;BME280;3230;42.588;23.358;2023-07-13T10:26:18;91475.38;;;32.68;38.07
6395;BME280;3230;42.588;23.358;2023-07-13T10:28:51;91457.84;;;32.80;38.27
6395;BME280;3230;42.588;23.358;2023-07-13T10:31:19;91464.50;;;32.76;37.30
6395;BME280;3230;42.588;23.358;2023-07-13T10:33:45;91465.31;;;32.69;36.76
6395;BME280;3230;42.588;23.358;2023-07-13T10:36:34;91458.91;;;33.28;36.84
6395;BME280;3230;42.588;23.358;2023-07-13T10:39:05;91464.59;;;33.41;38.05
6395;BME280;3230;42.588;23.358;2023-07-13T10:41:35;91462.72;;;33.69;37.79
6395;BME280;3230;42.588;23.358;2023-07-13T10:44:03;91463.28;;;33.88;35.43
6395;BME280;3230;42.588;23.358;2023-07-13T10:46:30;91456.03;;;34.05;35.93
6395;BME280;3230;42.588;23.358;2023-07-13T10:49:01;91456.56;;;33.96;36.14
6395;BME280;3230;42.588;23.358;2023-07-13T10:51:30;91451.94;;;33.93;38.17
6395;BME280;3230;42.588;23.358;2023-07-13T10:54:17;91450.72;;;33.67;35.04
6395;BME280;3230;42.588;23.358;2023-07-13T10:56:43;91444.06;;;33.40;36.92
6395;BME280;3230;42.588;23.358;2023-07-13T10:59:39;91437.72;;;33.51;37.52
6395;BME280;3230;42.588;23.358;2023-07-13T11:02:12;91441.03;;;33.31;36.52
6395;BME280;3230;42.588;23.358;2023-07-13T11:04:42;91435.63;;;33.31;37.00
6395;BME280;3230;42.588;23.358;2023-07-13T11:07:29;91429.66;;;33.09;36.73
6395;BME280;3230;42.588;23.358;2023-07-13T11:09:57;91430.28;;;33.55;35.51
6395;BME280;3230;42.588;23.358;2023-07-13T11:19:53;91418.72;;;33.51;33.72
6395;BME280;3230;42.588;23.358;2023-07-13T11:22:25;91414.84;;;33.79;34.44
6395;BME280;3230;42.588;23.358;2023-07-13T11:25:06;91404.13;;;33.68;35.78
6395;BME280;3230;42.588;23.358;2023-07-13T11:27:50;91412.06;;;33.83;36.28
6395;BME280;3230;42.588;23.358;2023-07-13T11:38:32;91407.63;;;33.96;34.00
6395;BME280;3230;42.588;23.358;2023-07-13T11:41:03;91399.13;;;33.94;33.48
6395;BME280;3230;42.588;23.358;2023-07-13T11:43:29;91404.13;;;33.68;33.54
6395;BME280;3230;42.588;23.358;2023-07-13T11:45:55;91400.22;;;33.96;34.79
6395;BME280;3230;42.588;23.358;2023-07-13T11:48:29;91408.06;;;33.94;33.83
6395;BME280;3230;42.588;23.358;2023-07-13T11:51:02;91410.25;;;34.03;32.74
6395;BME280;3230;42.588;23.358;2023-07-13T11:53:38;91384.44;;;33.88;30.49
6395;BME280;3230;42.588;23.358;2023-07-13T11:56:05;91398.69;;;33.68;32.47
6395;BME280;3230;42.588;23.358;2023-07-13T11:58:31;91395.06;;;34.06;32.24
6395;BME280;3230;42.588;23.358;2023-07-13T12:00:59;91401.78;;;33.98;33.09
6395;BME280;3230;42.588;23.358;2023-07-13T12:03:26;91392.56;;;33.91;32.53
6395;BME280;3230;42.588;23.358;2023-07-13T12:05:57;91396.44;;;33.90;33.11
6395;BME280;3230;42.588;23.358;2023-07-13T12:08:23;91386.75;;;33.89;33.23
6395;BME280;3230;42.588;23.358;2023-07-13T12:10:56;91391.00;;;33.90;32.49
6395;BME280;3230;42.588;23.358;2023-07-13T12:13:22;91387.16;;;33.60;32.16
6395;BME280;3230;42.588;23.358;2023-07-13T12:15:48;91380.56;;;33.89;32.95
6395;BME280;3230;42.588;23.358;2023-07-13T12:18:17;91383.66;;;33.91;31.55
6395;BME280;3230;42.588;23.358;2023-07-13T12:20:44;91388.44;;;34.07;32.52
6395;BME280;3230;42.588;23.358;2023-07-13T12:23:30;91378.81;;;34.02;32.35
6395;BME280;3230;42.588;23.358;2023-07-13T12:25:57;91376.66;;;34.14;31.59
6395;BME280;3230;42.588;23.358;2023-07-13T12:30:59;91373.78;;;34.01;31.17
6395;BME280;3230;42.588;23.358;2023-07-13T12:33:27;91369.81;;;34.05;32.47
6395;BME280;3230;42.588;23.358;2023-07-13T12:35:54;91357.28;;;33.88;31.07
6395;BME280;3230;42.588;23.358;2023-07-13T12:38:19;91357.00;;;34.06;32.43
6395;BME280;3230;42.588;23.358;2023-07-13T12:40:49;91352.75;;;34.05;31.83
6395;BME280;3230;42.588;23.358;2023-07-13T12:43:16;91355.47;;;34.05;31.47
6395;BME280;3230;42.588;23.358;2023-07-13T12:46:20;91348.06;;;34.29;30.78
6395;BME280;3230;42.588;23.358;2023-07-13T12:48:52;91351.47;;;34.33;31.58
6395;BME280;3230;42.588;23.358;2023-07-13T12:51:22;91350.94;;;34.46;30.96
6395;BME280;3230;42.588;23.358;2023-07-13T12:53:56;91344.78;;;34.41;31.55
6395;BME280;3230;42.588;23.358;2023-07-13T12:56:23;91347.72;;;34.51;30.11
6395;BME280;3230;42.588;23.358;2023-07-13T12:58:54;91331.16;;;34.41;30.71
6395;BME280;3230;42.588;23.358;2023-07-13T13:01:21;91339.44;;;34.34;31.05
6395;BME280;3230;42.588;23.358;2023-07-13T13:03:51;91339.44;;;34.34;31.17
6395;BME280;3230;42.588;23.358;2023-07-13T13:08:45;91333.69;;;34.52;30.77
6395;BME280;3230;42.588;23.358;2023-07-13T13:11:10;91328.44;;;34.41;30.53
6395;BME280;3230;42.588;23.358;2023-07-13T13:13:36;91327.09;;;34.53;30.60
6395;BME280;3230;42.588;23.358;2023-07-13T13:16:19;91326.09;;;34.43;31.19
6395;BME280;3230;42.588;23.358;2023-07-13T13:18:45;91324.72;;;34.32;30.57
6395;BME280;3230;42.588;23.358;2023-07-13T13:21:11;91314.16;;;34.37;32.57
6395;BME280;3230;42.588;23.358;2023-07-13T13:23:37;91320.03;;;34.36;32.44
6395;BME280;3230;42.588;23.358;2023-07-13T13:26:04;91318.97;;;34.26;31.54
6395;BME280;3230;42.588;23.358;2023-07-13T13:28:31;91322.19;;;34.45;31.17
6395;BME280;3230;42.588;23.358;2023-07-13T13:30:57;91312.91;;;34.42;32.07
6395;BME280;3230;42.588;23.358;2023-07-13T13:33:23;91313.38;;;34.37;31.64
6395;BME280;3230;42.588;23.358;2023-07-13T13:35:48;91308.53;;;34.24;31.98
6395;BME280;3230;42.588;23.358;2023-07-13T13:38:16;91311.66;;;34.23;32.92
6395;BME280;3230;42.588;23.358;2023-07-13T13:40:43;91310.19;;;34.18;32.72
6395;BME280;3230;42.588;23.358;2023-07-13T13:43:17;91312.41;;;34.23;31.88